createdAt,value
2018-07-21T00:00:36.294Z,62.73
2018-07-21T00:02:29.600Z,62.73
2018-07-21T00:03:29.521Z,62.05
2018-07-21T00:05:22.808Z,62.02
2018-07-21T00:06:22.750Z,61.54
2018-07-21T00:08:16.046Z,62.99
2018-07-21T00:09:15.970Z,62.79
2018-07-21T00:11:09.285Z,63.18
2018-07-21T00:12:09.196Z,62.41
2018-07-21T00:14:02.532Z,62.89
2018-07-21T00:15:02.423Z,62.02
2018-07-21T00:16:55.729Z,63.76
2018-07-21T00:17:55.651Z,62.79
2018-07-21T00:19:48.939Z,64.15
2018-07-21T00:20:48.881Z,64.34
2018-07-21T00:22:42.184Z,63.67
2018-07-21T00:23:42.107Z,62.12
2018-07-21T00:25:35.392Z,63.09
2018-07-21T00:26:35.334Z,63.09
2018-07-21T00:28:28.629Z,63.76
2018-07-21T00:29:28.552Z,63.85
2018-07-21T00:31:21.868Z,63.57
2018-07-21T00:32:21.780Z,63.95
2018-07-21T00:34:15.062Z,62.79
2018-07-21T00:35:15.005Z,61.83
2018-07-21T00:37:08.370Z,61.64
2018-07-21T00:38:08.294Z,61.74
2018-07-21T00:40:01.580Z,61.74
2018-07-21T00:41:01.520Z,60.68
2018-07-21T00:42:54.827Z,60.68
2018-07-21T00:43:54.747Z,61.25
2018-07-21T00:45:48.032Z,61.35
2018-07-21T00:46:47.975Z,60.96
2018-07-21T00:48:41.280Z,60.68
2018-07-21T00:49:41.204Z,61.06
2018-07-21T00:51:34.522Z,60.68
2018-07-21T00:52:34.430Z,61.16
2018-07-21T00:54:27.716Z,60.77
2018-07-21T00:55:27.658Z,60.96
2018-07-21T00:57:21.016Z,61.54
2018-07-21T00:58:20.886Z,61.25
2018-07-21T01:00:14.175Z,61.35
2018-07-21T01:01:14.116Z,61.13
2018-07-21T01:03:07.423Z,61.61
2018-07-21T01:04:07.344Z,61.54
2018-07-21T01:06:00.628Z,61.74
2018-07-21T01:07:00.570Z,61.25
2018-07-21T01:08:53.866Z,61.61
2018-07-21T01:09:53.792Z,61.90
2018-07-21T01:11:47.108Z,62.48
2018-07-21T01:12:47.018Z,62.28
2018-07-21T01:14:40.349Z,62.57
2018-07-21T01:15:40.291Z,62.66
2018-07-21T01:17:33.593Z,63.34
2018-07-21T01:18:33.518Z,63.41
2018-07-21T01:20:26.803Z,63.50
2018-07-21T01:21:26.743Z,63.82
2018-07-21T01:23:20.047Z,63.44
2018-07-21T01:24:19.970Z,63.54
2018-07-21T01:26:13.256Z,63.44
2018-07-21T01:27:13.214Z,63.92
2018-07-21T01:29:06.511Z,64.56
2018-07-21T01:30:06.430Z,64.66
2018-07-21T01:31:59.742Z,65.63
2018-07-21T01:32:59.651Z,65.43
2018-07-21T01:34:52.937Z,66.30
2018-07-21T01:35:52.878Z,66.39
2018-07-21T01:37:46.182Z,66.11
2018-07-21T01:38:46.105Z,66.39
2018-07-21T01:40:39.389Z,66.69
2018-07-21T01:41:39.330Z,67.16
2018-07-21T01:43:32.636Z,68.00
2018-07-21T01:44:32.555Z,68.58
2018-07-21T01:46:25.839Z,68.68
2018-07-21T01:47:25.781Z,68.58
2018-07-21T01:49:19.085Z,68.77
2018-07-21T01:50:19.016Z,68.80
2018-07-21T01:52:12.385Z,68.42
2018-07-21T01:53:12.293Z,68.61
2018-07-21T01:55:05.576Z,68.71
2018-07-21T01:56:05.517Z,68.42
2018-07-21T01:57:58.814Z,68.13
2018-07-21T01:58:58.735Z,68.13
2018-07-21T02:00:52.019Z,68.04
2018-07-21T02:01:51.964Z,67.84
2018-07-21T02:03:45.264Z,68.23
2018-07-21T02:04:45.186Z,68.42
2018-07-21T02:06:39.072Z,68.42
2018-07-21T02:07:38.422Z,68.32
2018-07-21T02:09:31.733Z,68.04
2018-07-21T02:10:31.657Z,68.23
2018-07-21T02:12:24.973Z,67.84
2018-07-21T02:13:24.881Z,67.36
2018-07-21T02:15:18.166Z,68.32
2018-07-21T02:16:18.107Z,68.42
2018-07-21T02:18:11.405Z,68.61
2018-07-21T02:19:11.325Z,68.80
2018-07-21T02:21:04.609Z,68.80
2018-07-21T02:22:04.550Z,68.90
2018-07-21T02:23:57.859Z,68.99
2018-07-21T02:24:57.775Z,68.90
2018-07-21T02:26:51.058Z,68.80
2018-07-21T02:27:51.000Z,68.71
2018-07-21T02:29:44.373Z,68.80
2018-07-21T02:30:44.293Z,68.13
2018-07-21T02:32:37.610Z,68.61
2018-07-21T02:33:37.516Z,68.80
2018-07-21T02:35:30.804Z,68.71
2018-07-21T02:36:30.744Z,68.71
2018-07-21T02:38:24.053Z,68.80
2018-07-21T02:39:23.971Z,68.80
2018-07-21T02:41:17.254Z,68.90
2018-07-21T02:42:17.202Z,68.71
2018-07-21T02:44:10.500Z,69.19
2018-07-21T02:45:10.422Z,69.25
2018-07-21T02:47:03.717Z,69.67
2018-07-21T02:48:03.644Z,70.06
2018-07-21T02:49:56.953Z,69.67
2018-07-21T02:50:56.875Z,69.87
2018-07-21T02:52:50.193Z,70.44
2018-07-21T02:53:50.102Z,70.73
2018-07-21T02:55:43.387Z,70.35
2018-07-21T02:56:43.328Z,70.64
2018-07-21T02:58:36.633Z,71.37
2018-07-21T02:59:36.557Z,71.66
2018-07-21T03:01:29.840Z,71.66
2018-07-21T03:02:29.781Z,72.14
2018-07-21T03:04:23.084Z,71.95
2018-07-21T03:05:23.009Z,72.14
2018-07-21T03:07:16.351Z,72.53
2018-07-21T03:08:16.293Z,72.63
2018-07-21T03:10:09.624Z,72.33
2018-07-21T03:11:09.516Z,71.95
2018-07-21T03:13:02.836Z,72.53
2018-07-21T03:14:02.744Z,71.95
2018-07-21T03:15:56.025Z,72.33
2018-07-21T03:16:55.966Z,71.95
2018-07-21T03:18:49.270Z,72.53
2018-07-21T03:19:49.192Z,72.63
2018-07-21T03:21:42.477Z,72.14
2018-07-21T03:22:42.420Z,71.95
2018-07-21T03:24:35.724Z,72.05
2018-07-21T03:25:35.643Z,71.76
2018-07-21T03:27:28.927Z,71.95
2018-07-21T03:28:28.866Z,72.43
2018-07-21T03:30:22.170Z,72.53
2018-07-21T03:31:22.093Z,72.33
2018-07-21T03:33:15.498Z,72.53
2018-07-21T03:34:15.317Z,72.53
2018-07-21T03:36:08.621Z,71.85
2018-07-21T03:37:08.543Z,71.85
2018-07-21T03:39:01.951Z,72.24
2018-07-21T03:40:01.768Z,72.24
2018-07-21T03:41:55.052Z,72.53
2018-07-21T03:42:54.992Z,72.63
2018-07-21T03:44:48.369Z,73.10
2018-07-21T03:45:48.293Z,72.81
2018-07-21T03:47:41.576Z,73.10
2018-07-21T03:48:41.516Z,73.10
2018-07-21T03:50:34.820Z,73.39
2018-07-21T03:51:34.741Z,73.10
2018-07-21T03:53:28.044Z,73.30
2018-07-21T03:54:27.967Z,73.30
2018-07-21T03:56:21.269Z,74.16
2018-07-21T03:57:21.192Z,73.88
2018-07-21T03:59:14.495Z,74.16
2018-07-21T04:00:14.417Z,74.16
2018-07-21T04:02:07.701Z,74.07
2018-07-21T04:03:07.642Z,74.03
2018-07-21T04:05:00.944Z,73.97
2018-07-21T04:06:00.867Z,73.97
2018-07-21T04:07:54.145Z,74.41
2018-07-21T04:08:54.092Z,74.61
2018-07-21T04:10:47.888Z,74.55
2018-07-21T04:11:47.307Z,74.45
2018-07-21T04:13:40.713Z,74.65
2018-07-21T04:14:40.530Z,74.84
2018-07-21T04:16:33.891Z,74.99
2018-07-21T04:17:33.756Z,75.09
2018-07-21T04:19:27.055Z,75.76
2018-07-21T04:20:26.979Z,75.76
2018-07-21T04:22:20.365Z,75.67
2018-07-21T04:23:20.291Z,75.96
2018-07-21T04:25:13.593Z,75.86
2018-07-21T04:26:13.515Z,76.15
2018-07-21T04:28:06.900Z,76.63
2018-07-21T04:29:06.741Z,76.73
2018-07-21T04:31:00.043Z,77.11
2018-07-21T04:31:59.989Z,77.31
2018-07-21T04:33:53.248Z,77.40
2018-07-21T04:34:53.189Z,77.21
2018-07-21T04:36:46.490Z,77.59
2018-07-21T04:37:46.413Z,77.98
2018-07-21T04:39:39.716Z,78.17
2018-07-21T04:40:39.636Z,78.17
2018-07-21T04:42:32.919Z,78.46
2018-07-21T04:43:32.864Z,78.65
2018-07-21T04:45:26.166Z,77.98
2018-07-21T04:46:26.086Z,78.17
2018-07-21T04:48:19.369Z,78.08
2018-07-21T04:49:19.309Z,78.56
2018-07-21T04:51:12.612Z,78.85
2018-07-21T04:52:12.533Z,78.75
2018-07-21T04:54:05.816Z,79.23
2018-07-21T04:55:05.760Z,79.33
2018-07-21T04:56:59.162Z,79.23
2018-07-21T04:57:58.978Z,78.65
2018-07-21T04:59:52.368Z,78.46
2018-07-21T05:00:52.330Z,78.75
2018-07-21T05:02:45.571Z,78.85
2018-07-21T05:03:45.512Z,78.65
2018-07-21T05:05:38.814Z,78.56
2018-07-21T05:06:38.735Z,78.46
2018-07-21T05:08:32.011Z,78.75
2018-07-21T05:09:31.951Z,79.03
2018-07-21T05:11:25.255Z,78.75
2018-07-21T05:12:25.180Z,78.46
2018-07-21T05:14:18.451Z,78.17
2018-07-21T05:15:18.390Z,78.50
2018-07-21T05:17:11.692Z,78.31
2018-07-21T05:18:11.614Z,78.21
2018-07-21T05:20:04.945Z,78.21
2018-07-21T05:21:04.842Z,78.11
2018-07-21T05:22:58.123Z,78.31
2018-07-21T05:23:58.064Z,78.02
2018-07-21T05:25:51.365Z,78.40
2018-07-21T05:26:51.289Z,77.83
2018-07-21T05:28:44.563Z,77.53
2018-07-21T05:29:44.504Z,77.38
2018-07-21T05:31:37.812Z,76.86
2018-07-21T05:32:37.732Z,76.61
2018-07-21T05:34:31.016Z,76.61
2018-07-21T05:35:30.956Z,75.84
2018-07-21T05:37:24.369Z,76.23
2018-07-21T05:38:24.293Z,76.03
2018-07-21T05:40:17.597Z,75.74
2018-07-21T05:41:17.517Z,75.65
2018-07-21T05:43:10.802Z,75.55
2018-07-21T05:44:10.744Z,75.45
2018-07-21T05:46:04.048Z,75.36
2018-07-21T05:47:03.973Z,75.36
2018-07-21T05:48:57.257Z,74.88
2018-07-21T05:49:57.199Z,75.36
2018-07-21T05:51:50.503Z,75.36
2018-07-21T05:52:50.425Z,75.40
2018-07-21T05:54:43.831Z,74.05
2018-07-21T05:55:43.656Z,74.43
2018-07-21T05:57:37.059Z,73.37
2018-07-21T05:58:36.881Z,72.50
2018-07-21T06:00:30.185Z,72.99
2018-07-21T06:01:30.111Z,72.50
2018-07-21T06:03:23.384Z,72.41
2018-07-21T06:04:23.329Z,72.31
2018-07-21T06:06:16.631Z,72.69
2018-07-21T06:07:16.555Z,74.05
2018-07-21T06:09:09.841Z,74.27
2018-07-21T06:10:09.784Z,74.37
2018-07-21T06:12:03.089Z,74.05
2018-07-21T06:13:03.012Z,74.97
2018-07-21T06:14:56.351Z,75.36
2018-07-21T06:15:56.293Z,75.65
2018-07-21T06:17:49.590Z,75.36
2018-07-21T06:18:49.512Z,75.40
2018-07-21T06:20:42.808Z,74.33
2018-07-21T06:21:42.732Z,74.82
2018-07-21T06:23:36.007Z,72.92
2018-07-21T06:24:35.951Z,72.83
2018-07-21T06:26:29.358Z,71.67
2018-07-21T06:27:29.175Z,71.58
2018-07-21T06:29:22.448Z,71.90
2018-07-21T06:30:22.391Z,71.22
2018-07-21T06:32:16.546Z,70.03
2018-07-21T06:33:16.471Z,70.51
2018-07-21T06:35:09.758Z,69.64
2018-07-21T06:36:09.702Z,69.68
2018-07-21T06:38:03.015Z,68.71
2018-07-21T06:39:02.935Z,68.46
2018-07-21T06:40:56.243Z,67.30
2018-07-21T06:41:56.169Z,67.94
2018-07-21T06:43:49.473Z,67.75
2018-07-21T06:44:49.400Z,66.49
2018-07-21T06:46:42.699Z,66.69
2018-07-21T06:47:42.625Z,66.30
2018-07-21T06:49:35.976Z,64.53
2018-07-21T06:50:35.862Z,63.85
2018-07-21T06:52:29.168Z,61.69
2018-07-21T06:53:29.096Z,60.17
2018-07-21T06:55:22.389Z,58.59
2018-07-21T06:56:22.335Z,57.62
2018-07-21T06:58:15.643Z,56.49
2018-07-21T06:59:15.657Z,56.07
2018-07-21T07:01:08.887Z,57.23
2018-07-21T07:02:08.817Z,58.47
2018-07-21T07:04:02.114Z,60.34
2018-07-21T07:05:02.063Z,60.89
2018-07-21T07:06:55.378Z,61.54
2018-07-21T07:07:55.307Z,61.92
2018-07-21T07:09:49.601Z,62.15
2018-07-21T07:10:49.549Z,61.21
2018-07-21T07:12:42.866Z,60.24
2018-07-21T07:13:42.792Z,60.69
2018-07-21T07:15:36.088Z,60.63
2018-07-21T07:16:36.038Z,60.89
2018-07-21T07:18:29.340Z,60.72
2018-07-21T07:19:29.268Z,61.21
2018-07-21T07:21:23.579Z,61.66
2018-07-21T07:22:23.508Z,61.47
2018-07-21T07:24:16.804Z,61.40
2018-07-21T07:25:16.750Z,60.95
2018-07-21T07:27:10.060Z,59.05
2018-07-21T07:28:09.996Z,58.39
2018-07-21T07:30:03.292Z,56.87
2018-07-21T07:31:03.239Z,56.46
2018-07-21T07:32:56.557Z,57.92
2018-07-21T07:33:56.485Z,59.73
2018-07-21T07:35:49.899Z,60.67
2018-07-21T07:36:49.728Z,60.76
2018-07-21T07:38:44.015Z,60.60
2018-07-21T07:39:43.959Z,61.08
2018-07-21T07:41:37.271Z,61.47
2018-07-21T07:42:37.198Z,61.27
2018-07-21T07:44:30.492Z,61.05
2018-07-21T07:45:30.438Z,62.02
2018-07-21T07:47:23.850Z,61.44
2018-07-21T07:48:23.678Z,61.08
2018-07-21T07:50:17.070Z,61.57
2018-07-21T07:51:16.923Z,61.86
2018-07-21T07:53:10.230Z,61.86
2018-07-21T07:54:10.161Z,62.98
2018-07-21T07:56:03.452Z,62.50
2018-07-21T07:57:03.387Z,62.98
2018-07-21T07:58:56.690Z,63.37
2018-07-21T07:59:56.621Z,63.66
2018-07-21T08:01:49.929Z,63.76
2018-07-21T08:02:49.856Z,63.40
2018-07-21T08:04:43.157Z,62.92
2018-07-21T08:05:43.093Z,61.69
2018-07-21T08:07:36.406Z,60.75
2018-07-21T08:08:36.334Z,60.27
2018-07-21T08:10:29.626Z,60.82
2018-07-21T08:11:29.572Z,61.40
2018-07-21T08:13:22.886Z,61.98
2018-07-21T08:14:22.814Z,61.33
2018-07-21T08:16:16.110Z,60.47
2018-07-21T08:17:16.057Z,60.27
2018-07-21T08:19:09.368Z,62.15
2018-07-21T08:20:09.293Z,63.28
2018-07-21T08:22:02.607Z,64.92
2018-07-21T08:23:02.534Z,64.63
2018-07-21T08:24:55.829Z,64.63
2018-07-21T08:25:55.775Z,64.37
2018-07-21T08:27:49.086Z,63.60
2018-07-21T08:28:49.013Z,63.73
2018-07-21T08:30:42.352Z,62.50
2018-07-21T08:31:42.300Z,62.11
2018-07-21T08:33:35.602Z,61.43
2018-07-21T08:34:35.581Z,60.88
2018-07-21T08:36:28.826Z,60.59
2018-07-21T08:37:28.769Z,60.11
2018-07-21T08:39:22.082Z,60.40
2018-07-21T08:40:22.011Z,60.78
2018-07-21T08:42:15.325Z,60.98
2018-07-21T08:43:15.250Z,59.84
2018-07-21T08:45:08.552Z,60.37
2018-07-21T08:46:08.491Z,60.95
2018-07-21T08:48:01.797Z,60.21
2018-07-21T08:49:01.723Z,58.69
2018-07-21T08:50:55.016Z,57.55
2018-07-21T08:51:54.963Z,57.33
2018-07-21T08:53:48.379Z,59.23
2018-07-21T08:54:48.314Z,58.85
2018-07-21T08:56:41.693Z,60.08
2018-07-21T08:57:41.539Z,60.75
2018-07-21T08:59:34.853Z,61.33
2018-07-21T09:00:34.783Z,60.37
2018-07-21T09:02:28.095Z,59.91
2018-07-21T09:03:28.022Z,59.23
2018-07-21T09:05:21.314Z,60.37
2018-07-21T09:06:21.262Z,60.40
2018-07-21T09:08:14.679Z,59.23
2018-07-21T09:09:14.496Z,58.95
2018-07-21T09:11:07.889Z,59.89
2018-07-21T09:12:07.735Z,59.98
2018-07-21T09:14:01.148Z,60.69
2018-07-21T09:15:00.975Z,59.84
2018-07-21T09:16:54.355Z,58.98
2018-07-21T09:17:54.300Z,59.27
2018-07-21T09:19:47.650Z,58.91
2018-07-21T09:20:47.578Z,58.81
2018-07-21T09:22:41.011Z,58.26
2018-07-21T09:23:40.820Z,57.61
2018-07-21T09:25:34.116Z,56.35
2018-07-21T09:26:34.060Z,56.15
2018-07-21T09:28:27.472Z,57.19
2018-07-21T09:29:27.295Z,56.74
2018-07-21T09:31:20.593Z,55.38
2018-07-21T09:32:20.537Z,55.31
2018-07-21T09:34:13.899Z,55.83
2018-07-21T09:35:13.782Z,57.68
2018-07-21T09:37:07.077Z,56.96
2018-07-21T09:38:07.025Z,55.69
2018-07-21T09:40:00.426Z,55.11
2018-07-21T09:41:00.302Z,54.82
2018-07-21T09:42:53.620Z,54.34
2018-07-21T09:43:53.548Z,54.90
2018-07-21T09:45:46.845Z,55.57
2018-07-21T09:46:46.792Z,56.25
2018-07-21T09:48:40.111Z,56.68
2018-07-21T09:49:40.040Z,57.17
2018-07-21T09:51:33.340Z,55.67
2018-07-21T09:52:33.284Z,55.02
2018-07-21T09:54:26.600Z,53.20
2018-07-21T09:55:26.531Z,53.10
2018-07-21T09:57:19.827Z,51.48
2018-07-21T09:58:19.780Z,51.48
2018-07-21T10:00:13.092Z,53.00
2018-07-21T10:01:13.025Z,53.17
2018-07-21T10:03:06.374Z,53.47
2018-07-21T10:04:06.305Z,52.45
2018-07-21T10:05:59.699Z,50.26
2018-07-21T10:06:59.550Z,48.90
2018-07-21T10:08:52.891Z,47.20
2018-07-21T10:09:52.793Z,46.50
2018-07-21T10:11:46.093Z,45.91
2018-07-21T10:12:46.046Z,45.69
2018-07-21T10:14:39.364Z,45.91
2018-07-21T10:15:39.291Z,45.91
2018-07-21T10:17:32.592Z,45.89
2018-07-21T10:18:32.540Z,46.69
2018-07-21T10:20:25.861Z,44.89
2018-07-21T10:21:25.791Z,43.64
2018-07-21T10:23:19.111Z,42.02
2018-07-21T10:24:19.044Z,41.36
2018-07-21T10:26:12.441Z,41.42
2018-07-21T10:27:12.311Z,41.05
2018-07-21T10:29:05.728Z,42.30
2018-07-21T10:30:05.573Z,42.28
2018-07-21T10:31:58.867Z,41.11
2018-07-21T10:32:58.815Z,39.59
2018-07-21T10:34:52.234Z,39.49
2018-07-21T10:35:52.103Z,39.61
2018-07-21T10:37:45.502Z,40.73
2018-07-21T10:38:45.452Z,41.71
2018-07-21T10:40:38.774Z,42.25
2018-07-21T10:41:38.707Z,44.06
2018-07-21T10:43:32.029Z,44.74
2018-07-21T10:44:31.985Z,43.89
2018-07-21T10:46:25.860Z,42.66
2018-07-21T10:47:25.447Z,42.59
2018-07-21T10:49:18.767Z,42.94
2018-07-21T10:50:18.700Z,44.55
2018-07-21T10:52:12.002Z,45.79
2018-07-21T10:53:11.954Z,46.64
2018-07-21T10:55:05.513Z,46.30
2018-07-21T10:56:05.444Z,46.23
2018-07-21T10:57:58.738Z,44.79
2018-07-21T10:58:58.690Z,44.76
2018-07-21T11:00:52.008Z,45.77
2018-07-21T11:01:51.941Z,46.74
2018-07-21T11:03:45.510Z,46.77
2018-07-21T11:04:45.445Z,46.47
2018-07-21T11:06:38.746Z,46.37
2018-07-21T11:07:38.693Z,46.13
2018-07-21T11:09:32.114Z,45.25
2018-07-21T11:10:31.946Z,44.89
2018-07-21T11:12:25.489Z,44.23
2018-07-21T11:13:25.439Z,44.90
2018-07-21T11:15:18.837Z,43.35
2018-07-21T11:16:18.696Z,44.67
2018-07-21T11:18:11.990Z,45.91
2018-07-21T11:19:11.939Z,45.72
2018-07-21T11:21:05.340Z,44.89
2018-07-21T11:22:05.264Z,44.03
2018-07-21T11:23:58.750Z,43.84
2018-07-21T11:24:58.454Z,44.23
2018-07-21T11:26:51.757Z,45.08
2018-07-21T11:27:51.709Z,44.69
2018-07-21T11:29:45.029Z,44.30
2018-07-21T11:30:44.960Z,45.52
2018-07-21T11:32:38.264Z,46.11
2018-07-21T11:33:38.213Z,46.11
2018-07-21T11:35:31.624Z,44.98
2018-07-21T11:36:31.493Z,44.32
2018-07-21T11:38:24.762Z,43.29
2018-07-21T11:39:24.728Z,42.34
2018-07-21T11:41:18.035Z,41.87
2018-07-21T11:42:17.969Z,41.48
2018-07-21T11:44:11.349Z,43.54
2018-07-21T11:45:11.293Z,44.86
2018-07-21T11:47:04.585Z,45.86
2018-07-21T11:48:04.535Z,45.00
2018-07-21T11:49:57.858Z,44.59
2018-07-21T11:50:57.790Z,44.89
2018-07-21T11:52:51.093Z,44.52
2018-07-21T11:53:51.044Z,44.59
2018-07-21T11:55:44.365Z,45.15
2018-07-21T11:56:44.296Z,46.13
2018-07-21T11:58:37.591Z,44.96
2018-07-21T11:59:37.537Z,45.45
2018-07-21T12:01:30.955Z,45.94
2018-07-21T12:02:30.789Z,46.32
2018-07-21T12:04:24.099Z,46.05
2018-07-21T12:05:24.094Z,45.18
2018-07-21T12:07:17.319Z,46.15
2018-07-21T12:08:17.269Z,46.42
2018-07-21T12:10:10.674Z,46.13
2018-07-21T12:11:10.518Z,46.42
2018-07-21T12:13:03.876Z,46.78
2018-07-21T12:14:03.766Z,47.27
2018-07-21T12:15:57.083Z,46.98
2018-07-21T12:16:57.016Z,46.91
2018-07-21T12:18:50.304Z,46.61
2018-07-21T12:19:50.252Z,46.54
2018-07-21T12:21:43.570Z,47.00
2018-07-21T12:22:43.500Z,47.10
2018-07-21T12:24:36.838Z,46.91
2018-07-21T12:25:36.767Z,46.91
2018-07-21T12:27:31.107Z,46.91
2018-07-21T12:28:31.014Z,46.59
2018-07-21T12:30:24.332Z,47.78
2018-07-21T12:31:24.263Z,47.59
2018-07-21T12:33:17.560Z,46.83
2018-07-21T12:34:17.595Z,45.86
2018-07-21T12:36:10.824Z,46.54
2018-07-21T12:37:10.757Z,46.71
2018-07-21T12:39:04.054Z,46.34
2018-07-21T12:40:04.004Z,46.71
2018-07-21T12:41:57.394Z,46.51
2018-07-21T12:42:57.326Z,46.73
2018-07-21T12:44:50.672Z,45.81
2018-07-21T12:45:50.571Z,45.81
2018-07-21T12:47:43.870Z,45.15
2018-07-21T12:48:43.820Z,45.03
2018-07-21T12:50:37.137Z,47.59
2018-07-21T12:51:37.066Z,47.71
2018-07-21T12:53:30.369Z,46.66
2018-07-21T12:54:30.318Z,45.98
2018-07-21T12:56:23.734Z,46.08
2018-07-21T12:57:23.566Z,46.10
2018-07-21T12:59:16.864Z,44.93
2018-07-21T13:00:16.813Z,44.73
2018-07-21T13:02:10.131Z,44.83
2018-07-21T13:03:10.063Z,45.61
2018-07-21T13:05:03.397Z,45.22
2018-07-21T13:06:03.326Z,44.66
2018-07-21T13:07:56.629Z,44.56
2018-07-21T13:08:56.578Z,43.95
2018-07-21T13:10:49.896Z,45.05
2018-07-21T13:11:49.826Z,44.95
2018-07-21T13:13:43.126Z,44.37
2018-07-21T13:14:43.076Z,44.76
2018-07-21T13:16:36.395Z,44.48
2018-07-21T13:17:36.326Z,43.51
2018-07-21T13:19:29.626Z,43.24
2018-07-21T13:20:29.576Z,42.75
2018-07-21T13:22:22.897Z,43.24
2018-07-21T13:23:22.827Z,42.36
2018-07-21T13:25:16.747Z,42.38
2018-07-21T13:26:16.078Z,42.46
2018-07-21T13:28:09.382Z,43.43
2018-07-21T13:29:09.332Z,43.02
2018-07-21T13:31:02.652Z,44.37
2018-07-21T13:32:02.584Z,44.64
2018-07-21T13:33:55.886Z,44.29
2018-07-21T13:34:55.838Z,43.90
2018-07-21T13:36:49.160Z,43.53
2018-07-21T13:37:49.091Z,43.53
2018-07-21T13:39:42.396Z,44.27
2018-07-21T13:40:42.345Z,44.83
2018-07-21T13:42:35.666Z,44.83
2018-07-21T13:43:35.598Z,44.64
2018-07-21T13:45:28.908Z,44.17
2018-07-21T13:46:28.841Z,44.19
2018-07-21T13:48:22.135Z,45.12
2018-07-21T13:49:22.089Z,44.37
2018-07-21T13:51:15.399Z,43.71
2018-07-21T13:52:15.329Z,43.90
2018-07-21T13:54:08.627Z,43.61
2018-07-21T13:55:08.573Z,43.80
2018-07-21T13:57:01.894Z,43.51
2018-07-21T13:58:01.825Z,44.37
2018-07-21T13:59:55.224Z,44.76
2018-07-21T14:00:55.079Z,44.46
2018-07-21T14:02:48.494Z,44.76
2018-07-21T14:03:48.335Z,44.17
2018-07-21T14:05:41.759Z,44.76
2018-07-21T14:06:41.694Z,44.15
2018-07-21T14:08:34.983Z,44.46
2018-07-21T14:09:34.932Z,44.73
2018-07-21T14:11:28.248Z,44.34
2018-07-21T14:12:28.185Z,44.27
2018-07-21T14:14:21.485Z,44.83
2018-07-21T14:15:21.435Z,44.93
2018-07-21T14:17:14.756Z,45.22
2018-07-21T14:18:14.684Z,45.20
2018-07-21T14:20:07.984Z,45.78
2018-07-21T14:21:07.934Z,45.88
2018-07-21T14:23:01.252Z,46.25
2018-07-21T14:24:01.236Z,46.15
2018-07-21T14:25:54.598Z,45.95
2018-07-21T14:26:54.431Z,46.56
2018-07-21T14:28:47.722Z,45.98
2018-07-21T14:29:47.694Z,45.88
2018-07-21T14:31:40.990Z,45.78
2018-07-21T14:32:40.918Z,45.20
2018-07-21T14:34:34.219Z,45.49
2018-07-21T14:35:34.166Z,44.90
2018-07-21T14:37:28.483Z,44.81
2018-07-21T14:38:28.411Z,44.52
2018-07-21T14:40:21.806Z,44.69
2018-07-21T14:41:21.661Z,45.08
2018-07-21T14:43:14.975Z,45.00
2018-07-21T14:44:14.905Z,44.83
2018-07-21T14:46:08.222Z,44.73
2018-07-21T14:47:08.154Z,44.73
2018-07-21T14:49:01.451Z,44.24
2018-07-21T14:50:01.401Z,44.44
2018-07-21T14:51:55.317Z,45.10
2018-07-21T14:52:54.648Z,45.20
2018-07-21T14:54:48.118Z,45.28
2018-07-21T14:55:47.885Z,45.37
2018-07-21T14:57:41.193Z,46.05
2018-07-21T14:58:41.121Z,46.73
2018-07-21T15:00:34.420Z,46.05
2018-07-21T15:01:34.374Z,45.95
2018-07-21T15:03:27.685Z,46.44
2018-07-21T15:04:27.615Z,46.13
2018-07-21T15:06:20.934Z,46.71
2018-07-21T15:07:20.862Z,47.10
2018-07-21T15:09:14.159Z,46.73
2018-07-21T15:10:14.106Z,46.44
2018-07-21T15:12:07.424Z,46.73
2018-07-21T15:13:07.353Z,46.51
2018-07-21T15:15:00.648Z,46.42
2018-07-21T15:16:00.596Z,46.42
2018-07-21T15:17:54.026Z,46.42
2018-07-21T15:18:53.835Z,46.91
2018-07-21T15:20:47.148Z,46.71
2018-07-21T15:21:47.081Z,46.23
2018-07-21T15:23:40.395Z,45.74
2018-07-21T15:24:40.325Z,46.05
2018-07-21T15:26:33.644Z,45.54
2018-07-21T15:27:33.568Z,45.54
2018-07-21T15:29:26.889Z,45.94
2018-07-21T15:30:26.814Z,46.32
2018-07-21T15:32:20.131Z,49.51
2018-07-21T15:33:20.057Z,49.61
2018-07-21T15:35:13.381Z,50.65
2018-07-21T15:36:13.327Z,51.82
2018-07-21T15:38:06.633Z,54.13
2018-07-21T15:39:06.563Z,58.89
2018-07-21T15:40:59.857Z,62.16
2018-07-21T15:41:59.804Z,67.28
2018-07-21T15:43:53.122Z,73.60
2018-07-21T15:44:53.046Z,78.02
2018-07-21T15:46:46.358Z,85.14
2018-07-21T15:47:46.309Z,91.28
2018-07-21T15:49:39.577Z,92.55
2018-07-21T15:50:39.519Z,90.61
2018-07-21T15:52:32.835Z,90.86
2018-07-21T15:53:32.756Z,91.05
2018-07-21T15:55:26.041Z,89.41
2018-07-21T15:56:25.984Z,88.83
2018-07-21T15:58:19.400Z,90.86
2018-07-21T15:59:19.321Z,93.18
2018-07-21T16:01:12.608Z,91.63
2018-07-21T16:02:12.580Z,84.68
2018-07-21T16:04:05.852Z,87.29
2018-07-21T16:05:05.775Z,85.74
2018-07-21T16:06:59.079Z,84.10
2018-07-21T16:07:59.002Z,80.72
2018-07-21T16:09:52.286Z,84.97
2018-07-21T16:10:52.229Z,80.82
2018-07-21T16:12:45.531Z,88.15
2018-07-21T16:13:45.455Z,92.89
2018-07-21T16:15:38.739Z,93.90
2018-07-21T16:16:38.683Z,99.02
2018-07-21T16:18:31.984Z,99.99
2018-07-21T16:19:31.912Z,97.28
2018-07-21T16:21:25.194Z,99.99
2018-07-21T16:22:25.197Z,99.99
2018-07-21T16:24:19.441Z,99.99
2018-07-21T16:25:19.360Z,99.99
2018-07-21T16:27:12.662Z,99.99
2018-07-21T16:28:12.586Z,99.99
2018-07-21T16:30:05.870Z,99.99
2018-07-21T16:31:05.809Z,99.99
2018-07-21T16:32:59.111Z,99.99
2018-07-21T16:33:59.034Z,99.99
2018-07-21T16:35:52.316Z,99.99
2018-07-21T16:36:52.256Z,99.99
2018-07-21T16:38:45.552Z,99.99
2018-07-21T16:39:45.474Z,99.99
2018-07-21T16:41:38.757Z,99.99
2018-07-21T16:42:38.697Z,99.99
2018-07-21T16:44:31.999Z,99.99
2018-07-21T16:45:31.924Z,99.99
2018-07-21T16:47:25.225Z,99.99
2018-07-21T16:48:25.148Z,99.99
2018-07-21T16:50:18.433Z,99.99
2018-07-21T16:51:18.375Z,99.99
2018-07-21T16:53:11.676Z,99.99
2018-07-21T16:54:11.605Z,99.99
2018-07-21T16:56:04.883Z,99.99
2018-07-21T16:57:04.828Z,99.99
2018-07-21T16:58:58.128Z,99.99
2018-07-21T16:59:58.066Z,99.99
2018-07-21T17:01:51.381Z,99.99
2018-07-21T17:02:51.320Z,99.99
2018-07-21T17:04:44.623Z,99.99
2018-07-21T17:05:44.548Z,99.99
2018-07-21T17:07:37.850Z,99.99
2018-07-21T17:08:37.774Z,99.99
2018-07-21T17:10:31.061Z,99.99
2018-07-21T17:11:30.999Z,99.99
2018-07-21T17:13:24.324Z,99.99
2018-07-21T17:14:24.260Z,99.99
2018-07-21T17:16:17.511Z,99.99
2018-07-21T17:17:17.466Z,99.99
2018-07-21T17:19:10.847Z,99.99
2018-07-21T17:20:10.678Z,99.99
2018-07-21T17:22:03.966Z,99.99
2018-07-21T17:23:03.904Z,99.99
2018-07-21T17:24:57.209Z,99.99
2018-07-21T17:25:57.138Z,99.99
2018-07-21T17:27:50.435Z,99.99
2018-07-21T17:28:50.357Z,99.99
2018-07-21T17:30:43.646Z,99.99
2018-07-21T17:31:43.587Z,99.99
2018-07-21T17:33:36.888Z,99.99
2018-07-21T17:34:36.809Z,99.99
2018-07-21T17:36:30.095Z,99.99
2018-07-21T17:37:30.038Z,99.99
2018-07-21T17:39:23.411Z,99.99
2018-07-21T17:40:23.319Z,99.99
2018-07-21T17:42:16.603Z,99.99
2018-07-21T17:43:16.547Z,99.99
2018-07-21T17:45:09.852Z,99.99
2018-07-21T17:46:09.774Z,99.99
2018-07-21T17:48:03.070Z,99.99
2018-07-21T17:49:02.995Z,99.99
2018-07-21T17:50:56.279Z,99.99
2018-07-21T17:51:56.221Z,99.99
2018-07-21T17:53:49.526Z,99.99
2018-07-21T17:54:49.450Z,99.99
2018-07-21T17:56:42.744Z,99.99
2018-07-21T17:57:42.684Z,99.99
2018-07-21T17:59:35.988Z,99.99
2018-07-21T18:00:35.915Z,99.99
2018-07-21T18:02:29.200Z,99.99
2018-07-21T18:03:29.141Z,99.99
2018-07-21T18:05:22.448Z,99.99
2018-07-21T18:06:22.368Z,99.99
2018-07-21T18:08:15.663Z,99.99
2018-07-21T18:09:15.587Z,99.99
2018-07-21T18:11:08.872Z,99.99
2018-07-21T18:12:08.816Z,99.99
2018-07-21T18:14:03.128Z,99.99
2018-07-21T18:15:03.050Z,99.99
2018-07-21T18:16:56.338Z,99.99
2018-07-21T18:17:56.278Z,99.99
2018-07-21T18:19:49.583Z,99.99
2018-07-21T18:20:49.505Z,99.99
2018-07-21T18:22:42.800Z,99.99
2018-07-21T18:23:42.736Z,99.99
2018-07-21T18:25:36.094Z,99.99
2018-07-21T18:26:35.963Z,99.99
2018-07-21T18:28:29.399Z,99.99
2018-07-21T18:29:29.341Z,99.99
2018-07-21T18:31:22.609Z,99.99
2018-07-21T18:32:22.551Z,99.99
2018-07-21T18:34:15.855Z,99.99
2018-07-21T18:35:15.783Z,99.99